Time;durP1;ratioP1;P1;durP2;ratioP2;P2;SDS_P1;SDS_P2;PMS_P1;PMS_P2;Temp;Humidity;BMP_temperature;BMP_pressure;BME280_temperature;BME280_humidity;BME280_pressure;Samples;Min_cycle;Max_cycle;Signal;HPM_P1;HPM_P2
2021/03/23 00:01:12;;;;;;;17.75;9.80;;;3.40;99.90;;;;;;5120606;27;20511;-55
2021/03/23 00:03:40;;;;;;;15.50;9.65;;;3.40;99.90;;;;;;5119119;27;20100;-59
2021/03/23 00:06:07;;;;;;;13.95;8.07;;;3.30;99.90;;;;;;5120860;27;20047;-54
2021/03/23 00:08:39;;;;;;;20.27;9.50;;;3.40;99.90;;;;;;5118662;28;20622;-57
2021/03/23 00:11:12;;;;;;;16.02;9.15;;;3.40;99.90;;;;;;5120094;27;20060;-58
2021/03/23 00:13:40;;;;;;;19.73;10.45;;;3.40;99.90;;;;;;5120600;27;20035;-57
2021/03/23 00:16:06;;;;;;;19.20;9.85;;;3.40;99.90;;;;;;5104910;27;20532;-55
2021/03/23 00:18:32;;;;;;;17.48;9.02;;;3.40;99.90;;;;;;5098816;28;20036;-53
2021/03/23 00:20:58;;;;;;;13.63;8.77;;;3.50;99.90;;;;;;5107609;28;20398;-56
2021/03/23 00:23:24;;;;;;;15.40;9.18;;;3.50;99.90;;;;;;5106685;28;20039;-57
2021/03/23 00:25:50;;;;;;;14.77;8.48;;;3.40;99.90;;;;;;5106388;28;20066;-57
2021/03/23 00:28:15;;;;;;;14.10;7.97;;;3.40;99.90;;;;;;5107002;28;20059;-54
2021/03/23 00:30:41;;;;;;;13.05;7.68;;;3.40;99.90;;;;;;5101304;28;20036;-53
2021/03/23 00:33:07;;;;;;;;;;;3.40;99.90;;;;;;5097801;28;20082;-57
2021/03/23 00:35:32;;;;;;;16.15;8.48;;;3.40;99.90;;;;;;5098276;28;19922;-55
2021/03/23 00:38:01;;;;;;;16.13;8.35;;;3.40;99.90;;;;;;5106024;28;20690;-59
2021/03/23 00:40:30;;;;;;;15.68;9.15;;;3.40;99.90;;;;;;5102571;28;20032;-55
2021/03/23 00:42:56;;;;;;;15.65;8.43;;;3.30;99.90;;;;;;5095407;28;20036;-57
2021/03/23 00:45:24;;;;;;;14.57;8.20;;;3.40;99.90;;;;;;5102039;27;20478;-50
2021/03/23 00:47:49;;;;;;;20.45;7.35;;;3.30;99.90;;;;;;5106280;28;20165;-54
2021/03/23 00:50:15;;;;;;;12.80;7.70;;;3.30;99.90;;;;;;5098022;28;20071;-54
2021/03/23 00:52:41;;;;;;;;;;;3.40;99.90;;;;;;5105986;28;20491;-54
2021/03/23 00:55:08;;;;;;;14.77;7.65;;;3.40;99.90;;;;;;5105688;28;19924;-55
2021/03/23 00:57:34;;;;;;;20.40;10.77;;;3.40;99.90;;;;;;5089625;27;20157;-51
2021/03/23 00:59:59;;;;;;;15.88;8.65;;;3.30;99.90;;;;;;5105886;28;20150;-54
2021/03/23 01:02:27;;;;;;;11.70;7.78;;;3.30;99.90;;;;;;5101195;28;20728;-55
2021/03/23 01:04:53;;;;;;;20.63;8.98;;;3.30;99.90;;;;;;5102717;28;20544;-51
2021/03/23 01:07:18;;;;;;;19.77;10.98;;;3.30;99.90;;;;;;5096205;28;20035;-52
2021/03/23 01:09:44;;;;;;;18.77;10.82;;;3.30;99.90;;;;;;5102548;28;20163;-51
2021/03/23 01:12:11;;;;;;;18.75;10.80;;;3.30;99.90;;;;;;5104735;28;20035;-56
2021/03/23 01:14:37;;;;;;;18.65;10.35;;;3.20;99.90;;;;;;5090353;28;20132;-56
2021/03/23 01:17:04;;;;;;;16.17;10.07;;;3.30;99.90;;;;;;5105431;28;20036;-54
2021/03/23 01:19:30;;;;;;;17.52;10.95;;;3.30;99.90;;;;;;5098678;28;20403;-57
2021/03/23 01:21:56;;;;;;;23.02;12.00;;;3.30;99.90;;;;;;5097843;28;20027;-56
2021/03/23 01:24:22;;;;;;;17.73;11.48;;;3.30;99.90;;;;;;5097611;28;20058;-57
2021/03/23 01:26:47;;;;;;;21.95;11.80;;;3.30;99.90;;;;;;5097130;28;20040;-56
2021/03/23 01:29:13;;;;;;;;;;;3.20;99.90;;;;;;5098088;28;20027;-57
2021/03/23 01:31:39;;;;;;;21.50;11.18;;;3.20;99.90;;;;;;5095900;28;19938;-55
2021/03/23 01:34:05;;;;;;;21.52;12.40;;;3.10;99.90;;;;;;5105900;28;20053;-57
2021/03/23 01:36:31;;;;;;;18.52;11.52;;;3.10;99.90;;;;;;5096279;28;20756;-56
2021/03/23 01:38:56;;;;;;;;;;;3.10;99.90;;;;;;5096299;28;20127;-58
2021/03/23 01:41:22;;;;;;;21.65;10.45;;;3.00;99.90;;;;;;5098120;28;19920;-52
2021/03/23 01:43:47;;;;;;;;;;;3.00;99.90;;;;;;5096057;28;20171;-56
2021/03/23 01:46:38;;;;;;;18.55;10.98;;;3.00;99.90;;;;;;5104412;28;19921;-55
2021/03/23 01:49:07;;;;;;;16.38;10.50;;;3.10;99.90;;;;;;5090896;28;20133;-56
2021/03/23 01:51:33;;;;;;;17.52;10.50;;;3.00;99.90;;;;;;5100563;28;20251;-55
2021/03/23 01:54:07;;;;;;;19.90;11.50;;;3.10;99.90;;;;;;5101030;28;20035;-56
2021/03/23 01:56:33;;;;;;;22.83;12.05;;;3.10;99.90;;;;;;5099471;28;20115;-55
2021/03/23 01:59:01;;;;;;;20.98;11.90;;;3.00;99.90;;;;;;5096715;28;20028;-54
2021/03/23 02:01:29;;;;;;;16.92;9.85;;;3.00;99.90;;;;;;5099467;28;20092;-55
2021/03/23 02:03:54;;;;;;;20.17;10.55;;;3.00;99.90;;;;;;5092992;28;20048;-54
2021/03/23 02:06:47;;;;;;;19.08;11.50;;;3.10;99.90;;;;;;5104732;28;20035;-53
2021/03/23 02:09:21;;;;;;;16.00;9.70;;;3.00;99.90;;;;;;5096259;28;20073;-52
2021/03/23 02:11:58;;;;;;;16.95;9.60;;;3.10;99.90;;;;;;5096791;28;20521;-57
2021/03/23 02:14:30;;;;;;;15.60;9.68;;;3.10;99.90;;;;;;5098365;28;20036;-55
2021/03/23 02:17:22;;;;;;;18.00;10.25;;;3.10;99.90;;;;;;5087770;28;20122;-56
2021/03/23 02:19:49;;;;;;;16.17;8.88;;;3.10;99.90;;;;;;5091830;28;20110;-53
2021/03/23 02:22:26;;;;;;;20.15;10.90;;;3.10;99.90;;;;;;5089339;28;20032;-57
2021/03/23 02:24:52;;;;;;;15.52;9.85;;;3.10;99.90;;;;;;5094733;28;20081;-53
2021/03/23 02:27:18;;;;;;;16.83;10.07;;;3.10;99.90;;;;;;5096159;28;20486;-52
2021/03/23 02:29:44;;;;;;;18.17;11.13;;;3.10;99.90;;;;;;5100964;28;20805;-48
2021/03/23 02:32:10;;;;;;;20.33;11.77;;;3.10;99.90;;;;;;5097649;28;20271;-56
2021/03/23 02:34:36;;;;;;;20.92;11.80;;;3.10;99.90;;;;;;5089808;28;20040;-56
2021/03/23 02:37:02;;;;;;;18.45;12.52;;;3.10;99.90;;;;;;5100647;28;20046;-56
2021/03/23 02:39:30;;;;;;;22.92;12.10;;;3.10;99.90;;;;;;5094094;28;20086;-57
2021/03/23 02:41:57;;;;;;;18.80;11.55;;;3.10;99.90;;;;;;5096709;28;20047;-52
2021/03/23 02:44:23;;;;;;;22.17;12.98;;;3.00;99.90;;;;;;5098497;28;20093;-54
2021/03/23 02:46:50;;;;;;;21.60;12.45;;;3.00;99.90;;;;;;5114987;27;20039;-52
2021/03/23 02:49:15;;;;;;;22.30;12.82;;;3.00;99.90;;;;;;5114871;27;20024;-56
2021/03/23 02:51:41;;;;;;;21.27;13.80;;;3.00;99.90;;;;;;5113339;27;20039;-48
2021/03/23 02:54:07;;;;;;;;;;;3.00;99.90;;;;;;5109821;27;21010;-49
2021/03/23 02:56:33;;;;;;;27.45;15.15;;;3.00;99.90;;;;;;5121699;27;19919;-55
2021/03/23 02:58:59;;;;;;;22.45;12.73;;;2.90;99.90;;;;;;5104834;27;20032;-58
2021/03/23 03:01:24;;;;;;;25.30;14.40;;;2.90;99.90;;;;;;5112059;27;20181;-57
2021/03/23 03:03:50;;;;;;;27.90;15.65;;;2.90;99.90;;;;;;5115794;28;20081;-58
2021/03/23 03:06:15;;;;;;;24.55;15.02;;;2.90;99.90;;;;;;5114589;28;20133;-55
2021/03/23 03:08:41;;;;;;;24.65;13.95;;;2.90;99.90;;;;;;5117793;28;20039;-55
2021/03/23 03:11:07;;;;;;;25.45;16.23;;;2.90;99.90;;;;;;5120373;28;20687;-53
2021/03/23 03:13:33;;;;;;;;;;;2.90;99.90;;;;;;5123564;27;20035;-51
2021/03/23 03:16:00;;;;;;;23.80;13.97;;;2.90;99.90;;;;;;5113792;27;19915;-55
2021/03/23 03:18:26;;;;;;;26.98;14.10;;;3.00;99.90;;;;;;5102934;28;20111;-54
2021/03/23 03:20:53;;;;;;;27.40;15.10;;;3.00;99.90;;;;;;5103237;28;20491;-57
2021/03/23 03:23:19;;;;;;;27.48;15.10;;;3.00;99.90;;;;;;5100052;28;20040;-55
2021/03/23 03:25:50;;;;;;;27.58;16.00;;;3.00;99.90;;;;;;5096841;28;20036;-55
2021/03/23 03:28:16;;;;;;;28.25;15.73;;;3.00;99.90;;;;;;5101553;28;20040;-56
2021/03/23 03:30:43;;;;;;;26.77;13.73;;;3.00;99.90;;;;;;5093754;28;20040;-51
2021/03/23 03:33:11;;;;;;;24.42;13.18;;;3.00;99.90;;;;;;5099745;28;20058;-51
2021/03/23 03:35:38;;;;;;;25.92;14.55;;;3.00;99.90;;;;;;5102446;28;20403;-49
2021/03/23 03:38:05;;;;;;;26.42;14.85;;;3.10;99.90;;;;;;5103485;28;20024;-52
2021/03/23 03:40:35;;;;;;;24.58;14.70;;;3.10;99.90;;;;;;5099787;28;20115;-56
2021/03/23 03:43:02;;;;;;;23.88;14.85;;;3.10;99.90;;;;;;5095952;28;20097;-57
2021/03/23 03:45:28;;;;;;;23.70;14.32;;;3.10;99.90;;;;;;5098025;28;20044;-56
2021/03/23 03:47:55;;;;;;;27.95;15.82;;;3.00;99.90;;;;;;5091576;28;20032;-56
2021/03/23 03:50:23;;;;;;;28.90;15.45;;;3.00;99.90;;;;;;5101404;28;20051;-51
2021/03/23 03:52:50;;;;;;;23.80;13.43;;;3.00;99.90;;;;;;5094615;28;20114;-56
2021/03/23 03:55:18;;;;;;;26.02;13.82;;;3.00;99.90;;;;;;5095677;28;20054;-53
2021/03/23 03:57:44;;;;;;;24.08;13.43;;;3.00;99.90;;;;;;5099493;28;20059;-60
2021/03/23 04:00:12;;;;;;;26.38;14.27;;;3.00;99.90;;;;;;5107403;28;20116;-59
2021/03/23 04:02:37;;;;;;;25.08;14.48;;;3.00;99.90;;;;;;5095868;27;20098;-57
2021/03/23 04:05:05;;;;;;;25.33;14.60;;;3.00;99.90;;;;;;5107324;28;20495;-55
2021/03/23 04:07:31;;;;;;;26.02;14.38;;;2.90;99.90;;;;;;5101783;28;20048;-58
2021/03/23 04:09:56;;;;;;;30.13;15.55;;;3.00;99.90;;;;;;5097266;28;20036;-56
2021/03/23 04:12:22;;;;;;;27.70;15.68;;;3.00;99.90;;;;;;5105368;28;20055;-51
2021/03/23 04:14:47;;;;;;;26.77;14.98;;;3.00;99.90;;;;;;5091137;28;20046;-58
2021/03/23 04:17:13;;;;;;;29.73;16.08;;;3.00;99.90;;;;;;5098156;28;20042;-54
2021/03/23 04:19:39;;;;;;;30.63;16.33;;;3.00;99.90;;;;;;5098680;28;20064;-54
2021/03/23 04:22:05;;;;;;;32.22;16.85;;;3.00;99.90;;;;;;5105877;28;20039;-54
2021/03/23 04:24:31;;;;;;;27.63;15.05;;;3.00;99.90;;;;;;5101070;28;20552;-53
2021/03/23 04:26:58;;;;;;;31.23;16.95;;;3.00;99.90;;;;;;5098415;28;20533;-58
2021/03/23 04:29:24;;;;;;;27.83;16.00;;;3.00;99.90;;;;;;5101369;28;20028;-51
2021/03/23 04:31:50;;;;;;;28.67;16.00;;;3.00;99.90;;;;;;5101145;28;20043;-58
2021/03/23 04:34:15;;;;;;;25.80;15.32;;;3.00;99.90;;;;;;5105672;28;20051;-53
2021/03/23 04:36:41;;;;;;;29.83;15.88;;;3.00;99.90;;;;;;5101088;28;20132;-58
2021/03/23 04:39:09;;;;;;;27.23;14.50;;;3.00;99.90;;;;;;5098237;28;20650;-54
2021/03/23 04:41:36;;;;;;;27.23;15.95;;;3.00;99.90;;;;;;5091141;28;20042;-55
2021/03/23 04:44:03;;;;;;;31.23;17.63;;;3.00;99.90;;;;;;5100612;28;20407;-53
2021/03/23 04:46:29;;;;;;;29.98;17.42;;;3.00;99.90;;;;;;5096172;27;20126;-53
2021/03/23 04:48:56;;;;;;;28.98;16.85;;;3.00;99.90;;;;;;5098409;28;20043;-52
2021/03/23 04:51:24;;;;;;;30.27;16.55;;;3.00;99.90;;;;;;5097176;28;20382;-51
2021/03/23 04:53:56;;;;;;;31.92;17.52;;;3.00;99.90;;;;;;5095361;28;20031;-60
2021/03/23 04:56:29;;;;;;;25.90;16.42;;;3.00;99.90;;;;;;5098777;28;20396;-58
2021/03/23 04:58:54;;;;;;;31.75;17.00;;;2.90;99.90;;;;;;5099146;28;20031;-51
2021/03/23 05:01:20;;;;;;;30.60;18.10;;;3.00;99.90;;;;;;5100537;28;20043;-59
2021/03/23 05:03:46;;;;;;;;;;;3.00;99.90;;;;;;5099258;28;20628;-54
2021/03/23 05:06:12;;;;;;;29.30;16.65;;;3.00;99.90;;;;;;5096937;28;19916;-55
2021/03/23 05:08:42;;;;;;;30.90;16.70;;;3.00;99.90;;;;;;5094394;28;20067;-56
2021/03/23 05:11:11;;;;;;;29.33;17.33;;;3.00;99.90;;;;;;5094867;28;20487;-52
2021/03/23 05:13:37;;;;;;;32.53;18.80;;;3.10;99.90;;;;;;5094487;28;20403;-53
2021/03/23 05:16:03;;;;;;;30.05;17.40;;;3.00;99.90;;;;;;5108866;27;20035;-52
2021/03/23 05:18:29;;;;;;;30.10;18.73;;;3.10;99.90;;;;;;5119405;27;20122;-56
2021/03/23 05:20:54;;;;;;;32.10;18.30;;;3.10;99.90;;;;;;5120200;27;20122;-55
2021/03/23 05:23:20;;;;;;;29.85;18.35;;;3.10;99.90;;;;;;5106748;27;20067;-55
2021/03/23 05:25:46;;;;;;;33.28;19.30;;;3.10;99.90;;;;;;5105416;28;20046;-54
2021/03/23 05:28:13;;;;;;;32.45;18.80;;;3.20;99.90;;;;;;5097542;28;20503;-57
2021/03/23 05:30:40;;;;;;;34.45;18.63;;;3.10;99.90;;;;;;5115513;27;20039;-57
2021/03/23 05:33:07;;;;;;;30.38;18.40;;;3.20;99.90;;;;;;5121203;27;20118;-56
2021/03/23 05:35:33;;;;;;;33.58;18.40;;;3.10;99.90;;;;;;5112982;27;20505;-51
2021/03/23 05:37:59;;;;;;;31.67;19.90;;;3.10;99.90;;;;;;5098196;28;20137;-55
2021/03/23 05:40:32;;;;;;;33.78;19.45;;;3.10;99.90;;;;;;5104224;28;20044;-57
2021/03/23 05:42:57;;;;;;;35.88;21.02;;;3.10;99.90;;;;;;5103912;28;20047;-58
2021/03/23 05:45:37;;;;;;;56.65;31.10;;;3.10;99.90;;;;;;5089172;27;20044;-57
2021/03/23 05:48:23;;;;;;;38.97;21.75;;;3.20;99.90;;;;;;5124456;27;20027;-56
2021/03/23 05:51:02;;;;;;;34.28;20.30;;;3.20;99.90;;;;;;5118659;27;20039;-57
2021/03/23 05:53:46;;;;;;;37.63;20.20;;;3.30;99.90;;;;;;5115850;27;20043;-58
2021/03/23 05:56:13;;;;;;;37.40;21.10;;;3.30;99.90;;;;;;5123105;27;20038;-56
2021/03/23 05:58:46;;;;;;;34.65;19.83;;;3.30;99.90;;;;;;5121944;27;20422;-58
2021/03/23 06:01:17;;;;;;;39.17;22.80;;;3.30;99.90;;;;;;5110369;27;20035;-57
2021/03/23 06:03:59;;;;;;;41.63;24.60;;;3.40;99.90;;;;;;5100821;28;20051;-58
2021/03/23 06:06:37;;;;;;;44.80;25.48;;;3.40;99.90;;;;;;5091810;28;20052;-57
2021/03/23 06:09:03;;;;;;;38.63;22.65;;;3.40;99.90;;;;;;5097407;28;20040;-58
2021/03/23 06:11:41;;;;;;;43.42;23.83;;;3.30;99.90;;;;;;5101730;28;20044;-56
2021/03/23 06:14:17;;;;;;;43.63;24.33;;;3.20;99.90;;;;;;5084416;28;20051;-50
2021/03/23 06:17:04;;;;;;;47.28;24.95;;;3.20;99.90;;;;;;5099048;28;20042;-56
2021/03/23 06:19:49;;;;;;;46.20;25.35;;;3.30;99.90;;;;;;5104962;28;20035;-59
2021/03/23 06:22:27;;;;;;;45.65;25.40;;;3.30;99.90;;;;;;5102363;27;20114;-58
2021/03/23 06:25:16;;;;;;;43.55;25.23;;;3.30;99.90;;;;;;5104678;27;20043;-57
2021/03/23 06:27:58;;;;;;;55.95;27.52;;;3.20;99.90;;;;;;5099965;28;20035;-58
2021/03/23 06:30:54;;;;;;;51.58;26.30;;;3.20;99.90;;;;;;5101565;28;20043;-54
2021/03/23 06:33:23;;;;;;;48.40;26.73;;;3.30;99.90;;;;;;5113101;27;20043;-56
2021/03/23 06:35:56;;;;;;;51.35;28.67;;;3.30;99.90;;;;;;5111475;27;20538;-55
2021/03/23 06:38:32;;;;;;;49.33;26.85;;;3.30;99.90;;;;;;5106484;27;20067;-56
2021/03/23 06:41:04;;;;;;;;;;;3.40;99.90;;;;;;5121144;27;20147;-56
2021/03/23 06:43:30;;;;;;;57.05;28.75;;;3.40;99.90;;;;;;5115153;27;20350;-54
2021/03/23 06:46:15;;;;;;;53.40;29.65;;;3.40;99.90;;;;;;5114328;27;20032;-56
2021/03/23 06:48:41;;;;;;;61.40;32.45;;;3.40;99.90;;;;;;5092224;28;20024;-54
2021/03/23 06:51:10;;;;;;;55.78;30.55;;;3.40;99.90;;;;;;5098622;28;20088;-54
2021/03/23 06:53:36;;;;;;;57.53;31.33;;;3.50;99.90;;;;;;5094170;28;20043;-57
2021/03/23 06:56:24;;;;;;;56.50;29.13;;;3.50;99.90;;;;;;5099909;28;20032;-54
2021/03/23 06:59:10;;;;;;;59.00;30.98;;;3.50;99.90;;;;;;5095148;28;20487;-56
2021/03/23 07:02:02;;;;;;;57.75;30.98;;;3.50;99.90;;;;;;5097231;28;20108;-55
2021/03/23 07:04:36;;;;;;;54.50;30.23;;;3.60;99.90;;;;;;5096104;28;20055;-53
2021/03/23 07:07:04;;;;;;;53.80;29.23;;;3.60;99.90;;;;;;5096130;28;20086;-56
2021/03/23 07:09:31;;;;;;;56.20;30.33;;;3.60;99.90;;;;;;5098654;28;20489;-52
2021/03/23 07:11:59;;;;;;;55.85;30.27;;;3.70;99.90;;;;;;5094658;28;20096;-55
2021/03/23 07:14:27;;;;;;;54.45;28.10;;;3.70;99.90;;;;;;5093958;28;20040;-54
2021/03/23 07:17:14;;;;;;;56.13;29.13;;;3.70;99.90;;;;;;5084999;28;20047;-53
2021/03/23 07:19:54;;;;;;;58.78;31.02;;;3.70;99.90;;;;;;5092990;28;20497;-55
2021/03/23 07:22:40;;;;;;;56.15;30.35;;;3.80;99.90;;;;;;5096391;28;20098;-54
2021/03/23 07:25:30;;;;;;;56.05;29.63;;;3.80;99.90;;;;;;5081435;28;20051;-57
2021/03/23 07:28:36;;;;;;;55.50;28.67;;;3.80;99.90;;;;;;5106653;28;20665;-55
2021/03/23 07:31:06;;;;;;;59.50;29.92;;;3.80;99.90;;;;;;5103072;28;20121;-49
2021/03/23 07:33:49;;;;;;;58.10;30.80;;;3.80;99.90;;;;;;5091966;28;20130;-55
2021/03/23 07:36:23;;;;;;;57.78;28.67;;;3.80;99.90;;;;;;5097764;28;20039;-59
2021/03/23 07:38:59;;;;;;;61.38;30.40;;;3.80;99.90;;;;;;5091065;28;20114;-53
2021/03/23 07:41:35;;;;;;;55.80;28.67;;;3.80;99.90;;;;;;5095088;28;20116;-57
2021/03/23 07:44:17;;;;;;;54.70;28.48;;;3.80;99.90;;;;;;5098256;28;20040;-57
2021/03/23 07:46:46;;;;;;;53.58;27.02;;;3.80;99.90;;;;;;5101426;28;20079;-55
2021/03/23 07:49:41;;;;;;;55.60;26.90;;;3.80;99.90;;;;;;5104934;28;20152;-57
2021/03/23 07:52:28;;;;;;;49.80;25.88;;;3.90;99.90;;;;;;5106326;28;20039;-56
2021/03/23 07:54:59;;;;;;;56.47;27.02;;;3.80;99.90;;;;;;5093057;28;20058;-54
2021/03/23 07:57:47;;;;;;;57.00;28.70;;;3.90;99.90;;;;;;5096935;28;20042;-55
2021/03/23 08:00:49;;;;;;;54.47;28.58;;;4.00;99.90;;;;;;5094077;28;20090;-53
2021/03/23 08:03:52;;;;;;;52.78;26.95;;;3.90;99.90;;;;;;5095309;28;20054;-50
2021/03/23 08:06:36;;;;;;;53.38;28.35;;;3.90;99.90;;;;;;5100707;28;20047;-53
2021/03/23 08:09:19;;;;;;;56.58;27.75;;;4.00;99.90;;;;;;5097469;28;20470;-53
2021/03/23 08:12:00;;;;;;;59.60;29.48;;;4.00;99.90;;;;;;5095970;28;20051;-54
2021/03/23 08:14:46;;;;;;;57.75;28.50;;;4.00;99.90;;;;;;5090389;28;20053;-54
2021/03/23 08:17:24;;;;;;;48.08;25.77;;;4.10;99.90;;;;;;5095550;28;20043;-57
2021/03/23 08:20:08;;;;;;;54.25;28.20;;;4.20;99.90;;;;;;5097333;28;20032;-55
2021/03/23 08:22:59;;;;;;;55.00;27.92;;;4.20;99.90;;;;;;5096960;28;20118;-58
2021/03/23 08:25:49;;;;;;;53.55;26.05;;;4.30;99.90;;;;;;5094816;28;20040;-56
2021/03/23 08:28:37;;;;;;;51.70;26.55;;;4.30;99.90;;;;;;5093885;28;20033;-57
2021/03/23 08:31:14;;;;;;;55.92;26.48;;;4.30;99.90;;;;;;5107794;27;20054;-55
2021/03/23 08:33:40;;;;;;;52.35;27.25;;;4.20;99.90;;;;;;5098865;28;20051;-57
2021/03/23 08:36:21;;;;;;;52.67;27.40;;;4.30;99.90;;;;;;5104507;28;20051;-55
2021/03/23 08:39:09;;;;;;;55.08;26.67;;;4.20;99.90;;;;;;5105608;28;20039;-54
2021/03/23 08:41:53;;;;;;;49.92;27.13;;;4.20;99.90;;;;;;5098212;28;20040;-54
2021/03/23 08:44:39;;;;;;;48.00;26.67;;;4.20;99.90;;;;;;5102192;28;20043;-52
2021/03/23 08:47:28;;;;;;;49.13;24.52;;;4.20;99.90;;;;;;5101082;28;20032;-57
2021/03/23 08:49:57;;;;;;;57.67;28.88;;;4.30;99.90;;;;;;5094129;28;20036;-59
2021/03/23 08:52:36;;;;;;;52.83;27.00;;;4.30;99.90;;;;;;5102933;28;20044;-52
2021/03/23 08:55:05;;;;;;;53.80;27.92;;;4.40;99.90;;;;;;5105564;28;20027;-53
2021/03/23 08:57:49;;;;;;;54.67;27.02;;;4.40;99.90;;;;;;5097337;28;20122;-54
2021/03/23 09:00:54;;;;;;;49.92;26.95;;;4.50;99.90;;;;;;5088351;28;20554;-57
2021/03/23 09:03:20;;;;;;;56.40;28.35;;;4.50;99.90;;;;;;5041488;28;20045;-57
2021/03/23 09:05:50;;;;;;;58.45;27.38;;;4.60;99.90;;;;;;5088030;28;20057;-53
2021/03/23 09:08:27;;;;;;;58.22;26.58;;;4.60;99.90;;;;;;5100237;28;20031;-59
2021/03/23 09:11:13;;;;;;;56.75;25.15;;;4.60;99.90;;;;;;5099214;28;20088;-57
2021/03/23 09:13:39;;;;;;;51.50;26.00;;;4.40;99.90;;;;;;5104823;28;20082;-49
2021/03/23 09:16:16;;;;;;;;;;;4.40;99.90;;;;;;5105091;27;20075;-54
2021/03/23 09:19:00;;;;;;;50.83;25.05;;;4.60;99.90;;;;;;5084992;28;19930;-56
2021/03/23 09:21:54;;;;;;;48.70;24.70;;;4.60;99.90;;;;;;5093704;28;20051;-57
2021/03/23 09:24:38;;;;;;;57.83;25.58;;;4.70;99.90;;;;;;5104188;28;20050;-56
2021/03/23 09:27:25;;;;;;;46.78;22.95;;;4.90;99.90;;;;;;5097714;28;20050;-55
2021/03/23 09:29:51;;;;;;;49.30;23.90;;;5.00;99.90;;;;;;5094019;28;20032;-54
2021/03/23 09:32:26;;;;;;;54.22;24.02;;;5.00;99.90;;;;;;5095261;27;20845;-56
2021/03/23 09:35:10;;;;;;;47.13;21.88;;;5.00;99.90;;;;;;5096453;28;20039;-53
2021/03/23 09:37:47;;;;;;;58.33;28.95;;;5.10;99.90;;;;;;5103560;28;20036;-55
2021/03/23 09:40:19;;;;;;;56.47;28.20;;;5.20;99.90;;;;;;5092722;28;20079;-57
2021/03/23 09:42:52;;;;;;;58.72;29.80;;;5.30;99.90;;;;;;5094187;28;20508;-53
2021/03/23 09:45:52;;;;;;;57.85;29.65;;;5.50;99.90;;;;;;5096778;28;20031;-54
2021/03/23 09:48:40;;;;;;;63.78;29.80;;;5.80;99.90;;;;;;5089614;28;20035;-52
2021/03/23 09:51:32;;;;;;;49.83;26.35;;;6.00;99.90;;;;;;5096436;28;20487;-59
2021/03/23 09:53:58;;;;;;;49.55;23.88;;;6.20;99.90;;;;;;5082381;28;20480;-52
2021/03/23 09:56:26;;;;;;;;;;;6.30;99.90;;;;;;5098078;28;20126;-56
2021/03/23 09:59:04;;;;;;;52.05;24.48;;;6.40;99.90;;;;;;5103689;28;20011;-56
2021/03/23 10:01:32;;;;;;;41.20;22.17;;;6.50;99.90;;;;;;5102201;28;20096;-55
2021/03/23 10:03:58;;;;;;;50.35;23.13;;;6.70;99.90;;;;;;5099617;28;20531;-51
2021/03/23 10:06:27;;;;;;;52.92;23.98;;;6.70;99.90;;;;;;5098313;28;20039;-55
2021/03/23 10:09:03;;;;;;;48.13;25.83;;;6.90;99.90;;;;;;5096449;28;20032;-58
2021/03/23 10:11:36;;;;;;;45.47;22.27;;;6.90;99.90;;;;;;5090641;28;20574;-55
2021/03/23 10:14:09;;;;;;;46.70;22.85;;;6.80;99.90;;;;;;5096859;28;20532;-54
2021/03/23 10:16:37;;;;;;;45.35;22.35;;;6.70;99.90;;;;;;5095081;28;20039;-55
2021/03/23 10:19:25;;;;;;;51.95;22.50;;;6.60;99.90;;;;;;5098609;28;20031;-49
2021/03/23 10:21:53;;;;;;;45.33;23.33;;;6.70;99.90;;;;;;5103645;28;20047;-54
2021/03/23 10:24:24;;;;;;;55.25;25.65;;;6.90;99.90;;;;;;5097314;28;20526;-55
2021/03/23 10:26:53;;;;;;;41.90;23.50;;;6.70;99.90;;;;;;5096307;28;20070;-58
2021/03/23 10:29:26;;;;;;;48.90;24.90;;;6.80;99.90;;;;;;5092439;28;20127;-56
2021/03/23 10:31:55;;;;;;;41.45;21.98;;;6.50;99.90;;;;;;5099406;28;20047;-55
2021/03/23 10:34:32;;;;;;;50.88;25.30;;;6.60;99.90;;;;;;5097015;28;20176;-53
2021/03/23 10:37:01;;;;;;;45.38;24.45;;;6.50;99.90;;;;;;5100525;28;20050;-54
2021/03/23 10:39:33;;;;;;;44.70;22.00;;;6.80;99.90;;;;;;5096872;28;20047;-56
2021/03/23 10:42:12;;;;;;;44.70;23.60;;;7.10;99.90;;;;;;5102393;28;20036;-58
2021/03/23 10:44:37;;;;;;;44.35;23.98;;;7.10;99.90;;;;;;5089036;28;20101;-57
2021/03/23 10:47:03;;;;;;;;;;;7.20;99.90;;;;;;5104237;28;20066;-57
2021/03/23 10:49:33;;;;;;;43.90;21.48;;;7.50;99.90;;;;;;5104846;28;19923;-57
2021/03/23 10:52:17;;;;;;;43.53;23.05;;;7.80;99.90;;;;;;5096307;28;20042;-58
2021/03/23 10:54:43;;;;;;;44.08;23.23;;;7.80;99.90;;;;;;5097273;28;20044;-56
2021/03/23 10:57:23;;;;;;;;;;;7.70;99.90;;;;;;5104409;28;20054;-57
2021/03/23 10:59:48;;;;;;;44.13;22.20;;;7.70;99.90;;;;;;5096724;28;19923;-58
2021/03/23 11:02:14;;;;;;;;;;;7.80;99.90;;;;;;5103698;28;20388;-51
2021/03/23 11:05:18;;;;;;;40.42;21.95;;;7.90;99.90;;;;;;5100122;28;19934;-57
2021/03/23 11:07:56;;;;;;;50.05;23.25;;;7.80;99.90;;;;;;5051138;28;20044;-55
2021/03/23 11:10:26;;;;;;;43.97;21.90;;;7.50;99.90;;;;;;5095864;28;20056;-49
2021/03/23 11:12:51;;;;;;;43.65;23.20;;;7.40;99.90;;;;;;5096963;28;20063;-57
2021/03/23 11:15:17;;;;;;;;;;;7.60;99.90;;;;;;5092245;28;20113;-56
2021/03/23 11:17:46;;;;;;;43.63;21.67;;;7.60;99.90;;;;;;5095324;28;20018;-55
2021/03/23 11:20:22;;;;;;;40.03;21.15;;;7.70;99.90;;;;;;5096565;28;20118;-55
2021/03/23 11:22:50;;;;;;;44.72;22.95;;;7.70;99.90;;;;;;5094684;28;20036;-56
2021/03/23 11:25:19;;;;;;;41.88;22.58;;;7.80;99.90;;;;;;5097698;28;20093;-57
2021/03/23 11:27:44;;;;;;;44.25;20.33;;;7.70;99.60;;;;;;5097454;28;20042;-55
2021/03/23 11:30:10;;;;;;;;;;;7.60;99.90;;;;;;5103634;28;20036;-54
2021/03/23 11:32:36;;;;;;;45.60;21.75;;;7.60;99.90;;;;;;5101896;28;19920;-57
2021/03/23 11:35:01;;;;;;;;;;;7.50;99.90;;;;;;5094269;28;20618;-55
2021/03/23 11:37:27;;;;;;;41.33;20.58;;;7.70;99.90;;;;;;5102812;28;19916;-53
2021/03/23 11:39:52;;;;;;;;;;;7.50;99.90;;;;;;5093257;28;20259;-55
2021/03/23 11:42:43;;;;;;;39.13;20.55;;;7.50;99.90;;;;;;5095722;28;19977;-57
2021/03/23 11:45:42;;;;;;;40.53;19.98;;;7.70;99.90;;;;;;5096529;28;20070;-55
2021/03/23 11:48:12;;;;;;;46.85;25.55;;;7.60;99.50;;;;;;5068783;28;20056;-56
2021/03/23 11:50:40;;;;;;;42.60;22.05;;;7.70;99.90;;;;;;5097732;28;20093;-56
2021/03/23 11:53:09;;;;;;;41.70;20.38;;;7.70;99.90;;;;;;5099506;28;20074;-56
2021/03/23 11:55:39;;;;;;;43.35;21.65;;;7.70;99.10;;;;;;5099446;28;20674;-56
2021/03/23 11:58:05;;;;;;;40.20;21.23;;;7.80;99.90;;;;;;5100479;28;20088;-57
2021/03/23 12:00:32;;;;;;;40.55;20.58;;;8.00;99.90;;;;;;5092985;28;20056;-58
2021/03/23 12:02:58;;;;;;;38.45;20.58;;;8.20;99.90;;;;;;5086253;28;20050;-59
2021/03/23 12:05:25;;;;;;;36.00;20.05;;;8.40;98.60;;;;;;5102022;28;20241;-58
2021/03/23 12:08:29;;;;;;;48.13;22.48;;;8.60;99.90;;;;;;5093415;28;20036;-65
2021/03/23 12:11:16;;;;;;;40.00;19.77;;;8.70;99.10;;;;;;5093433;28;20042;-58
2021/03/23 12:13:41;;;;;;;;;;;8.80;99.30;;;;;;5099509;28;20041;-55
2021/03/23 12:16:19;;;;;;;41.08;21.00;;;8.90;98.90;;;;;;5104880;28;19920;-56
2021/03/23 12:18:57;;;;;;;39.80;19.42;;;9.00;98.10;;;;;;5100609;28;20036;-58
2021/03/23 12:21:26;;;;;;;34.97;18.98;;;9.00;97.60;;;;;;5095927;28;20138;-58
2021/03/23 12:23:52;;;;;;;42.90;18.15;;;8.80;97.20;;;;;;5105868;28;20043;-60
2021/03/23 12:26:18;;;;;;;;;;;8.70;96.50;;;;;;5106679;28;20601;-57
2021/03/23 12:28:44;;;;;;;37.38;18.40;;;8.70;96.80;;;;;;5108098;28;19915;-58
2021/03/23 12:31:11;;;;;;;36.15;19.42;;;8.70;97.60;;;;;;5108383;27;20023;-56
2021/03/23 12:33:37;;;;;;;39.80;18.75;;;8.60;96.70;;;;;;5095340;28;20036;-58
2021/03/23 12:36:03;;;;;;;;;;;8.50;96.90;;;;;;5094540;28;20356;-56
2021/03/23 12:38:29;;;;;;;40.00;18.23;;;8.30;97.60;;;;;;5103142;28;20642;-55
2021/03/23 12:40:55;;;;;;;;;;;8.30;98.20;;;;;;5104526;28;20063;-50
2021/03/23 12:43:26;;;;;;;37.30;19.75;;;8.20;97.40;;;;;;5106076;27;19959;-58
2021/03/23 12:45:53;;;;;;;38.67;19.23;;;8.20;98.30;;;;;;5100365;28;20032;-56
2021/03/23 12:48:19;;;;;;;35.35;18.83;;;8.20;98.50;;;;;;5094513;28;20105;-57
2021/03/23 12:50:44;;;;;;;;;;;8.30;98.20;;;;;;5107573;28;20410;-55
2021/03/23 12:53:13;;;;;;;36.33;19.92;;;8.40;98.10;;;;;;5104810;28;20006;-54
2021/03/23 12:55:42;;;;;;;46.03;23.95;;;8.30;98.10;;;;;;5105864;28;20418;-57
2021/03/23 12:58:15;;;;;;;38.08;19.80;;;8.30;98.80;;;;;;5098513;28;20040;-56
2021/03/23 13:00:41;;;;;;;42.55;20.10;;;8.30;97.50;;;;;;5103242;28;20039;-56
2021/03/23 13:03:15;;;;;;;38.17;18.60;;;8.20;98.50;;;;;;5098321;28;20131;-56
2021/03/23 13:05:41;;;;;;;38.75;18.75;;;8.20;98.10;;;;;;5106626;28;20032;-59
2021/03/23 13:08:19;;;;;;;;;;;8.10;98.20;;;;;;5105329;28;20110;-59
2021/03/23 13:10:50;;;;;;;37.20;19.48;;;8.20;98.20;;;;;;5093947;28;19998;-56